Time;durP1;ratioP1;P1;durP2;ratioP2;P2;SDS_P1;SDS_P2;PMS_P1;PMS_P2;Temp;Humidity;BMP_temperature;BMP_pressure;BME280_temperature;BME280_humidity;BME280_pressure;Samples;Min_cycle;Max_cycle;Signal;HPM_P1;HPM_P2
2022/11/21 00:01:56;;;;;;;15.38;8.82;;;;;;;-140.72;100.00;53285.81;5054148;28;20086;-67
2022/11/21 00:04:22;;;;;;;16.30;10.43;;;;;;;-140.72;100.00;53283.78;5058469;28;20021;-67
2022/11/21 00:06:52;;;;;;;14.45;9.40;;;;;;;-140.72;100.00;53291.88;5060880;28;20016;-66
2022/11/21 00:09:17;;;;;;;14.48;9.65;;;;;;;-140.72;100.00;53275.66;5063028;28;20024;-68
2022/11/21 00:11:43;;;;;;;15.57;9.48;;;;;;;-140.72;100.00;53318.28;5061240;28;20108;-67
2022/11/21 00:14:14;;;;;;;16.33;9.70;;;;;;;-140.72;100.00;53271.59;5065871;28;20429;-67
2022/11/21 00:16:39;;;;;;;15.27;8.95;;;;;;;-140.72;100.00;53289.88;5048126;28;20033;-67
2022/11/21 00:19:08;;;;;;;14.07;9.55;;;;;;;-140.72;100.00;53255.34;5060796;28;20036;-67
2022/11/21 00:21:33;;;;;;;12.32;8.50;;;;;;;-140.72;100.00;53273.63;5061239;28;20032;-68
2022/11/21 00:23:59;;;;;;;14.30;9.25;;;;;;;-140.72;100.00;53316.25;5072363;28;20028;-67
2022/11/21 00:26:24;;;;;;;17.00;9.80;;;;;;;-140.72;100.00;53235.06;5067021;28;20028;-67
2022/11/21 00:28:49;;;;;;;11.80;9.18;;;;;;;-140.72;100.00;53281.75;5055412;28;20028;-67
2022/11/21 00:31:20;;;;;;;14.70;8.40;;;;;;;-140.72;100.00;53247.25;5054817;28;20238;-67
2022/11/21 00:33:46;;;;;;;14.18;7.75;;;;;;;-140.72;100.00;53265.50;5069161;28;20032;-68
2022/11/21 00:36:11;;;;;;;16.08;9.48;;;;;;;-140.72;100.00;53273.63;5062329;28;20098;-67
2022/11/21 00:38:37;;;;;;;15.52;9.80;;;;;;;-140.72;100.00;53275.66;5066610;28;20040;-68
2022/11/21 00:41:02;;;;;;;15.25;9.45;;;;;;;-140.72;100.00;53241.16;5067999;28;20024;-68
2022/11/21 00:43:27;;;;;;;12.35;8.65;;;;;;;-140.72;100.00;53241.16;5067995;28;20471;-68
2022/11/21 00:45:53;;;;;;;14.80;9.48;;;;;;;-140.72;100.00;53312.19;5066300;28;20028;-67
2022/11/21 00:48:19;;;;;;;18.70;9.85;;;;;;;-140.72;100.00;53302.03;5057240;28;20430;-67
2022/11/21 00:50:47;;;;;;;15.90;9.65;;;;;;;-140.72;100.00;53233.03;5065780;28;20498;-68
2022/11/21 00:53:13;;;;;;;15.38;9.60;;;;;;;-140.72;100.00;53257.38;5055897;28;20068;-67
2022/11/21 00:55:38;;;;;;;15.48;10.73;;;;;;;-140.72;100.00;53300.00;5053462;28;20020;-67
2022/11/21 00:58:03;;;;;;;17.60;9.25;;;;;;;-140.72;100.00;53237.09;5055150;28;20040;-66
2022/11/21 01:00:29;;;;;;;16.38;11.48;;;;;;;-140.72;100.00;53300.00;5066696;28;20029;-67
2022/11/21 01:02:55;;;;;;;17.20;11.25;;;;;;;-140.72;100.00;53304.06;5067017;28;20434;-67
2022/11/21 01:05:20;;;;;;;21.65;12.18;;;;;;;-140.72;100.00;53261.44;5060913;28;20029;-67
2022/11/21 01:07:48;;;;;;;21.63;15.13;;;;;;;-140.72;100.00;53271.59;5048367;28;20020;-67
2022/11/21 01:10:13;;;;;;;20.35;12.80;;;;;;;-140.72;100.00;53241.16;5072000;28;20041;-67
2022/11/21 01:12:39;;;;;;;24.15;14.85;;;;;;;-140.72;100.00;53271.59;5061996;28;20032;-68
2022/11/21 01:19:01;;;;;;;22.77;14.15;;;;;;;-140.72;100.00;53265.50;4990876;28;20067;-68
2022/11/21 01:21:59;;;;;;;25.98;14.05;;;;;;;-140.72;100.00;53231.00;5052187;28;20526;-67
2022/11/21 01:24:24;;;;;;;24.40;13.02;;;;;;;-140.72;100.00;53247.25;5074555;28;20549;-68
2022/11/21 01:26:49;;;;;;;23.70;13.50;;;;;;;-140.72;100.00;53265.50;5083904;28;20119;-68
2022/11/21 01:29:16;;;;;;;20.60;13.93;;;;;;;-140.72;100.00;53279.72;5057498;28;20111;-68
2022/11/21 01:31:41;;;;;;;23.42;14.23;;;;;;;-140.72;100.00;53233.03;5072284;28;20024;-69
2022/11/21 01:34:06;;;;;;;26.58;14.00;;;;;;;-140.72;100.00;53287.84;5072169;28;20378;-69
2022/11/21 01:36:33;;;;;;;25.00;14.88;;;;;;;-140.72;100.00;53283.78;5059393;28;20047;-69
2022/11/21 01:39:04;;;;;;;23.75;13.80;;;;;;;-140.72;100.00;53239.13;5072629;28;20025;-69
2022/11/21 01:41:34;;;;;;;27.60;14.48;;;;;;;-140.72;100.00;53297.97;5065203;28;20478;-69
2022/11/21 01:44:01;;;;;;;24.25;15.07;;;;;;;-140.72;100.00;53279.72;5065749;28;20035;-69
2022/11/21 01:46:29;;;;;;;22.38;13.20;;;;;;;-140.72;100.00;53249.28;5059717;28;20024;-67
2022/11/21 01:49:10;;;;;;;22.30;13.05;;;;;;;-140.72;100.00;53243.19;5064317;28;20082;-69
2022/11/21 01:51:51;;;;;;;25.65;14.90;;;;;;;-140.72;100.00;53273.63;5059765;28;20459;-69
2022/11/21 01:54:41;;;;;;;21.98;12.68;;;;;;;-140.72;100.00;53241.16;5052946;28;20171;-69
2022/11/21 01:57:13;;;;;;;27.58;15.05;;;;;;;-140.72;100.00;53300.00;5083841;28;20425;-69
2022/11/21 02:00:00;;;;;;;23.45;13.60;;;;;;;-140.72;100.00;53267.53;5069855;28;20032;-68
2022/11/21 02:02:32;;;;;;;26.25;14.35;;;;;;;-140.72;100.00;53275.66;5060016;28;20074;-69
2022/11/21 02:04:59;;;;;;;27.38;15.93;;;;;;;-140.72;100.00;53295.94;5066789;28;20032;-70
2022/11/21 02:07:32;;;;;;;23.40;12.25;;;;;;;-140.72;100.00;53267.53;5066865;28;20057;-69
2022/11/21 02:10:00;;;;;;;21.60;13.18;;;;;;;-140.72;100.00;53312.19;5053007;28;20025;-68
2022/11/21 02:12:47;;;;;;;27.27;15.00;;;;;;;-140.72;100.00;53287.84;5052903;28;20033;-67
2022/11/21 02:15:13;;;;;;;24.73;11.52;;;;;;;-140.72;100.00;53267.53;5057238;28;20024;-67
2022/11/21 02:17:38;;;;;;;19.63;12.55;;;;;;;-140.72;100.00;53308.13;5070136;28;20035;-68
2022/11/21 02:20:06;;;;;;;24.17;11.98;;;;;;;-140.72;100.00;53283.78;5071995;28;20025;-67
2022/11/21 02:22:48;;;;;;;22.00;12.20;;;;;;;-140.72;100.00;53312.19;5060752;28;20044;-67
2022/11/21 02:25:19;;;;;;;25.77;13.38;;;;;;;-140.72;100.00;53302.03;5076547;28;20032;-68
2022/11/21 02:27:47;;;;;;;29.25;12.27;;;;;;;-140.72;100.00;53277.69;5071840;28;20023;-67
2022/11/21 02:30:14;;;;;;;17.80;12.32;;;;;;;-140.72;100.00;53291.88;5064050;28;20033;-67
2022/11/21 02:32:48;;;;;;;19.55;11.60;;;;;;;-140.72;100.00;53295.94;5052036;28;20532;-67
2022/11/21 02:35:17;;;;;;;20.77;11.98;;;;;;;-140.72;100.00;53289.88;5065218;28;20036;-69
2022/11/21 02:37:46;;;;;;;30.73;13.57;;;;;;;-140.72;100.00;53308.13;5070630;28;20044;-67
2022/11/21 02:40:24;;;;;;;19.88;12.02;;;;;;;-140.72;100.00;53312.19;5066047;28;20474;-66
2022/11/21 02:42:55;;;;;;;22.95;13.77;;;;;;;-140.72;100.00;53336.53;5061257;28;20029;-67
2022/11/21 02:45:27;;;;;;;27.67;14.27;;;;;;;-140.72;100.00;53247.25;5068565;28;20039;-67
2022/11/21 02:47:55;;;;;;;22.60;12.60;;;;;;;-140.72;100.00;53291.88;5059102;28;20029;-70
2022/11/21 02:50:32;;;;;;;21.77;12.38;;;;;;;-140.72;100.00;53310.16;5077995;28;20115;-69
2022/11/21 02:52:58;;;;;;;25.52;13.95;;;;;;;-140.72;100.00;53265.50;5050247;28;20033;-69
2022/11/21 02:55:25;;;;;;;20.52;12.73;;;;;;;-140.72;100.00;53291.88;5067893;28;20067;-68
2022/11/21 02:57:53;;;;;;;18.42;10.38;;;;;;;-140.72;100.00;53281.75;5074510;28;20543;-67
2022/11/21 03:00:20;;;;;;;24.60;14.00;;;;;;;-140.72;100.00;53324.38;5068088;28;20426;-68
2022/11/21 03:02:45;;;;;;;24.75;12.77;;;;;;;-140.72;100.00;53251.31;5050635;28;20043;-67
2022/11/21 03:05:14;;;;;;;20.05;12.65;;;;;;;-140.72;100.00;53267.53;5051095;28;20024;-67
2022/11/21 03:07:39;;;;;;;21.58;13.13;;;;;;;-140.72;100.00;53295.94;5064149;28;20035;-68
2022/11/21 03:10:05;;;;;;;16.27;10.60;;;;;;;-140.72;100.00;53308.13;5057961;28;20108;-67
2022/11/21 03:12:31;;;;;;;21.52;12.15;;;;;;;-140.72;100.00;53312.19;5069552;28;20279;-67
2022/11/21 03:14:56;;;;;;;23.27;12.65;;;;;;;-140.72;100.00;53340.59;5070952;28;20042;-68
2022/11/21 03:17:21;;;;;;;24.52;13.50;;;;;;;-140.72;100.00;53300.00;5070331;28;20090;-68
2022/11/21 03:19:47;;;;;;;22.48;12.43;;;;;;;-140.72;100.00;53271.59;5057488;28;20100;-67
2022/11/21 03:22:13;;;;;;;21.02;11.23;;;;;;;-140.72;100.00;53283.78;5068432;28;20036;-69
2022/11/21 03:24:39;;;;;;;24.17;12.05;;;;;;;-140.72;100.00;53326.41;5050665;28;20025;-68
2022/11/21 03:27:04;;;;;;;19.20;12.52;;;;;;;-140.72;100.00;53275.66;5048747;28;20066;-67
2022/11/21 03:29:33;;;;;;;24.13;11.48;;;;;;;-140.72;100.00;53283.78;5070906;28;20032;-68
2022/11/21 03:31:58;;;;;;;19.40;11.68;;;;;;;-140.72;100.00;53300.00;5061306;28;20115;-68
2022/11/21 03:34:24;;;;;;;22.67;11.25;;;;;;;-140.72;100.00;53324.38;5054292;28;20031;-68
2022/11/21 03:36:50;;;;;;;15.15;10.20;;;;;;;-140.72;100.00;53253.31;5052683;28;20040;-67
2022/11/21 03:39:15;;;;;;;18.35;11.75;;;;;;;-140.72;100.00;53279.72;5059234;28;20516;-68
2022/11/21 03:41:41;;;;;;;19.83;11.82;;;;;;;-140.72;100.00;53275.66;5052037;28;20025;-67
2022/11/21 03:44:09;;;;;;;20.60;10.77;;;;;;;-140.72;100.00;53302.03;5055279;28;20540;-68
2022/11/21 03:46:42;;;;;;;26.98;11.48;;;;;;;-140.72;100.00;53281.75;5059157;28;20025;-68
2022/11/21 03:49:08;;;;;;;16.85;9.90;;;;;;;-140.72;100.00;53300.00;5050380;28;20131;-68
2022/11/21 03:51:34;;;;;;;20.60;11.00;;;;;;;-140.72;100.00;53267.53;5049951;28;20037;-67
2022/11/21 03:54:01;;;;;;;18.45;10.40;;;;;;;-140.72;100.00;53314.22;5063214;28;20082;-67
2022/11/21 03:56:26;;;;;;;19.90;13.05;;;;;;;-140.72;100.00;53275.66;5054693;28;20032;-68
2022/11/21 03:58:52;;;;;;;17.02;10.93;;;;;;;-140.72;100.00;53265.50;5066662;28;20475;-67
2022/11/21 04:01:18;;;;;;;20.70;10.38;;;;;;;-140.72;100.00;53304.06;5056178;28;20020;-68
2022/11/21 04:03:44;;;;;;;16.55;11.32;;;;;;;-140.72;100.00;53334.50;5056029;28;20029;-67
2022/11/21 04:06:15;;;;;;;21.45;10.40;;;;;;;-140.72;100.00;53304.06;5053448;28;20044;-68
2022/11/21 04:08:41;;;;;;;23.60;11.07;;;;;;;-140.72;100.00;53261.44;5062546;28;20032;-67
2022/11/21 04:11:06;;;;;;;17.90;11.18;;;;;;;-140.72;100.00;53310.16;5060018;28;20763;-68
2022/11/21 04:13:32;;;;;;;32.13;11.40;;;;;;;-140.72;100.00;53297.97;5054699;28;20505;-68
2022/11/21 04:15:57;;;;;;;34.47;11.18;;;;;;;-140.72;100.00;53283.78;5050890;28;20120;-69
2022/11/21 04:18:23;;;;;;;21.80;11.02;;;;;;;-140.72;100.00;53239.13;5051783;28;20113;-67
2022/11/21 04:20:57;;;;;;;18.55;10.77;;;;;;;-140.72;100.00;53271.59;5050911;28;20032;-68
2022/11/21 04:23:23;;;;;;;39.35;9.50;;;;;;;-140.72;100.00;53259.41;5054217;28;20021;-68
2022/11/21 04:25:48;;;;;;;20.30;10.68;;;;;;;-140.72;100.00;53283.78;5057625;28;20025;-68
2022/11/21 04:28:13;;;;;;;21.35;10.02;;;;;;;-140.72;100.00;53332.47;5054785;28;20464;-67
2022/11/21 04:30:39;;;;;;;29.23;9.93;;;;;;;-140.72;100.00;53304.06;5051013;28;20025;-66
2022/11/21 04:33:04;;;;;;;15.68;9.27;;;;;;;-140.72;100.00;53291.88;5059369;28;20028;-68
2022/11/21 04:35:30;;;;;;;12.80;7.82;;;;;;;-140.72;100.00;53312.19;5055143;28;20063;-68
2022/11/21 04:37:55;;;;;;;18.98;9.52;;;;;;;-140.72;100.00;53279.72;5057295;28;20526;-67
2022/11/21 04:40:21;;;;;;;18.92;9.98;;;;;;;-140.72;100.00;53291.88;5052421;28;20029;-67
2022/11/21 04:42:47;;;;;;;14.50;9.73;;;;;;;-140.72;100.00;53308.13;5058809;28;20431;-67
2022/11/21 04:45:14;;;;;;;13.95;9.77;;;;;;;-140.72;100.00;53304.06;5055205;28;20252;-68
2022/11/21 04:47:42;;;;;;;17.80;9.90;;;;;;;-140.72;100.00;53275.66;5060421;28;20915;-69
2022/11/21 04:50:09;;;;;;;19.52;9.18;;;;;;;-140.72;100.00;53295.94;5057962;28;20040;-69
2022/11/21 04:52:35;;;;;;;14.43;9.52;;;;;;;-140.72;100.00;53289.88;5056219;28;20036;-67
2022/11/21 04:55:01;;;;;;;12.38;9.30;;;;;;;-140.72;100.00;53310.16;5058644;28;20032;-68
2022/11/21 04:57:27;;;;;;;19.60;9.57;;;;;;;-140.72;100.00;53291.88;5060407;28;20209;-67
2022/11/21 04:59:53;;;;;;;13.88;10.25;;;;;;;-140.72;100.00;53308.13;5054663;28;20030;-70
2022/11/21 05:02:19;;;;;;;16.33;8.05;;;;;;;-140.72;100.00;53302.03;5059510;28;20029;-67
2022/11/21 05:04:44;;;;;;;19.00;9.90;;;;;;;-140.72;100.00;53297.97;5056877;28;20016;-68
2022/11/21 05:07:10;;;;;;;15.80;9.02;;;;;;;-140.72;100.00;53287.84;5054035;28;20087;-67
2022/11/21 05:09:35;;;;;;;13.88;9.85;;;;;;;-140.72;100.00;53328.41;5056370;28;20053;-67
2022/11/21 05:14:44;;;;;;;13.80;9.18;;;;;;;-140.72;100.00;53304.06;5057679;28;20101;-68
2022/11/21 05:17:09;;;;;;;21.02;10.35;;;;;;;-140.72;100.00;53287.84;5056122;28;20479;-67
2022/11/21 05:19:35;;;;;;;14.20;9.75;;;;;;;-140.72;100.00;53302.03;5062557;28;20065;-67
2022/11/21 05:22:00;;;;;;;26.17;8.73;;;;;;;-140.72;100.00;53310.16;5056932;28;20059;-68
2022/11/21 05:24:25;;;;;;;17.45;9.45;;;;;;;-140.72;100.00;53277.69;5061548;28;20029;-67
2022/11/21 05:26:51;;;;;;;12.98;8.07;;;;;;;-140.72;100.00;53314.22;5063519;28;20021;-67
2022/11/21 05:29:16;;;;;;;12.45;9.13;;;;;;;-140.72;100.00;53312.19;5058490;28;20056;-68
2022/11/21 05:31:45;;;;;;;13.82;9.48;;;;;;;-140.72;100.00;53283.78;5070643;28;20033;-67
2022/11/21 05:34:10;;;;;;;16.05;9.65;;;;;;;-140.72;100.00;53302.03;5066933;28;20055;-68
2022/11/21 05:36:35;;;;;;;13.50;7.68;;;;;;;-140.72;100.00;53312.19;5066390;28;20052;-67
2022/11/21 05:39:01;;;;;;;36.05;8.82;;;;;;;-140.72;100.00;53295.94;5069650;28;20060;-67
2022/11/21 05:41:26;;;;;;;15.82;8.45;;;;;;;-140.72;100.00;53314.22;5071406;28;20388;-68
2022/11/21 05:43:51;;;;;;;12.75;9.65;;;;;;;-140.72;100.00;53330.44;5073465;28;20032;-67
2022/11/21 05:46:19;;;;;;;14.98;9.45;;;;;;;-140.72;100.00;53295.94;5052861;28;20444;-68
2022/11/21 05:48:46;;;;;;;14.18;8.80;;;;;;;-140.72;100.00;53297.97;5065179;28;20021;-67
2022/11/21 05:51:12;;;;;;;15.90;9.60;;;;;;;-140.72;100.00;53308.13;5064161;28;20047;-68
2022/11/21 05:53:37;;;;;;;13.23;8.43;;;;;;;-140.72;100.00;53352.78;5053521;28;20025;-67
2022/11/21 05:56:08;;;;;;;22.83;7.55;;;;;;;-140.72;100.00;53291.88;5052376;28;20029;-68
2022/11/21 05:58:34;;;;;;;18.90;8.63;;;;;;;-140.72;100.00;53312.19;5054932;28;20029;-68
2022/11/21 06:01:00;;;;;;;16.70;10.07;;;;;;;-140.72;100.00;53293.91;5051472;28;20024;-68
2022/11/21 06:03:31;;;;;;;13.60;8.77;;;;;;;-140.72;100.00;53312.19;5060508;28;20053;-68
2022/11/21 06:06:05;;;;;;;16.38;8.90;;;;;;;-140.72;100.00;53277.69;5052540;28;20040;-68
2022/11/21 06:08:45;;;;;;;13.27;9.25;;;;;;;-140.72;100.00;53330.44;5070797;28;20028;-67
2022/11/21 06:11:13;;;;;;;14.20;9.27;;;;;;;-140.72;100.00;53300.00;5069010;28;20401;-68
2022/11/21 06:13:39;;;;;;;12.80;7.82;;;;;;;-140.72;100.00;53318.28;5052449;28;20039;-68
2022/11/21 06:16:13;;;;;;;14.48;9.30;;;;;;;-140.72;100.00;53312.19;5068335;28;20028;-67
2022/11/21 06:18:41;;;;;;;12.63;9.35;;;;;;;-140.72;100.00;53342.63;5072666;28;20082;-67
2022/11/21 06:21:15;;;;;;;16.42;9.90;;;;;;;-140.72;100.00;53312.19;5069642;28;20028;-67
2022/11/21 06:23:41;;;;;;;16.77;8.68;;;;;;;-140.72;100.00;53304.06;5052338;28;20491;-67
2022/11/21 06:26:10;;;;;;;12.40;7.80;;;;;;;-140.72;100.00;53324.38;5056303;28;20035;-67
2022/11/21 06:28:38;;;;;;;13.00;9.20;;;;;;;-140.72;100.00;53300.00;5078076;28;20047;-67
2022/11/21 06:31:04;;;;;;;16.88;10.40;;;;;;;-140.72;100.00;53291.88;5083040;28;20024;-68
2022/11/21 06:33:29;;;;;;;10.52;7.43;;;;;;;-140.72;100.00;53293.91;5076567;28;20078;-67
2022/11/21 06:35:55;;;;;;;15.75;10.73;;;;;;;-140.72;100.00;53318.28;5056796;28;20024;-68
2022/11/21 06:38:20;;;;;;;16.10;9.38;;;;;;;-140.72;100.00;53279.72;5059231;28;20063;-67
2022/11/21 06:40:46;;;;;;;11.32;8.27;;;;;;;-140.72;100.00;53285.81;5062725;28;20085;-67
2022/11/21 06:43:11;;;;;;;13.32;8.63;;;;;;;-140.72;100.00;53308.13;5052291;28;20485;-65
2022/11/21 06:45:37;;;;;;;14.55;8.63;;;;;;;-140.72;100.00;53281.75;5073429;28;20024;-67
2022/11/21 06:48:02;;;;;;;18.05;9.57;;;;;;;-140.72;100.00;53322.34;5071284;28;20044;-67
2022/11/21 06:50:30;;;;;;;15.20;10.23;;;;;;;-140.72;100.00;53320.31;5057966;28;20111;-67
2022/11/21 06:52:59;;;;;;;15.07;8.90;;;;;;;-140.72;100.00;53316.25;5072334;28;20105;-67
2022/11/21 06:55:26;;;;;;;14.07;8.60;;;;;;;-140.72;100.00;53279.72;5051234;28;20033;-66
2022/11/21 06:57:52;;;;;;;10.85;7.97;;;;;;;-140.72;100.00;53277.69;5050848;28;20029;-66
2022/11/21 07:00:18;;;;;;;15.00;8.65;;;;;;;-140.72;100.00;53308.13;5053525;28;20467;-66
2022/11/21 07:02:43;;;;;;;15.55;9.93;;;;;;;-140.72;100.00;53304.06;5066589;28;20078;-67
2022/11/21 07:05:08;;;;;;;13.88;9.50;;;;;;;-140.72;100.00;53277.69;5052937;28;20049;-67
2022/11/21 07:07:34;;;;;;;11.45;7.95;;;;;;;-140.72;100.00;53304.06;5057984;28;20032;-67
2022/11/21 07:09:59;;;;;;;18.02;10.68;;;;;;;-140.72;100.00;53291.88;5075604;28;20394;-67
2022/11/21 07:15:09;;;;;;;22.40;10.38;;;;;;;-140.72;100.00;53330.44;5055897;28;20040;-67
2022/11/21 07:17:34;;;;;;;13.73;8.82;;;;;;;-140.72;100.00;53314.22;5065032;28;20486;-67
2022/11/21 07:20:00;;;;;;;16.33;9.57;;;;;;;-140.72;100.00;53306.09;5053588;28;20124;-67
2022/11/21 07:22:25;;;;;;;13.73;8.60;;;;;;;-140.72;100.00;53304.06;5057446;28;20406;-67
2022/11/21 07:24:51;;;;;;;12.55;8.95;;;;;;;-140.72;100.00;53308.13;5049761;28;20033;-67
2022/11/21 07:27:16;;;;;;;12.95;9.25;;;;;;;-140.72;100.00;53312.19;5059575;28;20063;-68
2022/11/21 07:29:41;;;;;;;15.43;9.90;;;;;;;-140.72;100.00;53295.94;5057881;28;20021;-68
2022/11/21 07:32:07;;;;;;;11.27;7.38;;;;;;;-140.72;100.00;53302.03;5051823;28;20131;-67
2022/11/21 07:34:33;;;;;;;11.73;7.43;;;;;;;-140.72;100.00;53308.13;5049848;28;20066;-67
2022/11/21 07:36:58;;;;;;;19.23;10.57;;;;;;;-140.72;100.00;53300.00;5056131;28;20461;-67
2022/11/21 07:39:25;;;;;;;11.32;8.40;;;;;;;-140.72;100.00;53291.88;5054725;28;20021;-68
2022/11/21 07:41:50;;;;;;;12.25;8.60;;;;;;;-140.72;100.00;53283.78;5063758;28;20028;-68
2022/11/21 07:44:15;;;;;;;15.23;8.27;;;;;;;-140.72;100.00;53291.88;5067500;28;20401;-68
2022/11/21 07:46:41;;;;;;;13.63;8.50;;;;;;;-140.72;100.00;53304.06;5068046;28;20108;-67
2022/11/21 07:49:06;;;;;;;18.85;8.07;;;;;;;-140.72;100.00;53302.03;5055977;28;20881;-67
2022/11/21 07:51:32;;;;;;;11.65;7.65;;;;;;;-140.72;100.00;53277.69;5049328;28;20107;-68
2022/11/21 07:53:57;;;;;;;13.93;8.63;;;;;;;-140.72;100.00;53312.19;5052035;28;20419;-68
2022/11/21 07:56:25;;;;;;;11.00;6.68;;;;;;;-140.72;100.00;53263.47;5067608;28;20060;-67
2022/11/21 07:58:51;;;;;;;13.27;7.60;;;;;;;-140.72;100.00;53281.75;5060158;28;20394;-67
2022/11/21 08:01:16;;;;;;;10.50;8.05;;;;;;;-140.72;100.00;53263.47;5059434;28;20379;-68
2022/11/21 08:03:42;;;;;;;10.38;7.55;;;;;;;-140.72;100.00;53306.09;5064261;28;20024;-67
2022/11/21 08:06:11;;;;;;;24.38;7.45;;;;;;;-140.72;100.00;53300.00;5068033;28;20481;-68
2022/11/21 08:08:36;;;;;;;12.95;7.68;;;;;;;-140.72;100.00;53295.94;5061449;28;20473;-68
2022/11/21 08:11:05;;;;;;;12.80;8.60;;;;;;;-140.72;100.00;53287.84;5062016;28;20206;-69
2022/11/21 08:13:31;;;;;;;9.93;8.25;;;;;;;-140.72;100.00;53279.72;5057779;28;20419;-67
2022/11/21 08:15:57;;;;;;;11.30;7.18;;;;;;;-140.72;100.00;53310.16;5062242;28;20074;-70
2022/11/21 08:18:22;;;;;;;10.65;6.65;;;;;;;-140.72;100.00;53304.06;5072470;28;20147;-70
2022/11/21 08:20:47;;;;;;;10.48;6.90;;;;;;;-140.72;100.00;53277.69;5058682;28;20031;-69
2022/11/21 08:23:16;;;;;;;12.63;7.93;;;;;;;-140.72;100.00;53310.16;5059767;28;20024;-69
2022/11/21 08:25:41;;;;;;;11.88;7.63;;;;;;;-140.72;100.00;53312.19;5075004;28;20143;-69
2022/11/21 08:28:09;;;;;;;13.23;7.47;;;;;;;-140.72;100.00;53295.94;5070426;28;20582;-67
2022/11/21 08:30:35;;;;;;;11.95;7.15;;;;;;;-140.72;100.00;53320.31;5063968;28;20043;-69
2022/11/21 08:33:01;;;;;;;13.23;7.78;;;;;;;-140.72;100.00;53293.91;5066342;28;20020;-69
2022/11/21 08:35:28;;;;;;;8.95;6.75;;;;;;;-140.72;100.00;53304.06;5063646;28;20056;-70
2022/11/21 08:37:58;;;;;;;10.75;6.88;;;;;;;-140.72;100.00;53231.00;5073304;28;20576;-68
2022/11/21 08:40:25;;;;;;;12.52;7.10;;;;;;;-140.72;100.00;53267.53;5069675;28;20343;-68
2022/11/21 08:42:58;;;;;;;12.30;7.57;;;;;;;-140.72;100.00;53302.03;5063960;28;20020;-69
2022/11/21 08:45:24;;;;;;;9.23;6.55;;;;;;;-140.72;100.00;53275.66;5064663;28;20090;-69
2022/11/21 08:47:50;;;;;;;10.75;7.35;;;;;;;-140.72;100.00;53308.13;5067727;28;20593;-69
2022/11/21 08:50:16;;;;;;;10.10;6.38;;;;;;;-140.72;100.00;53267.53;5065006;28;20032;-69
2022/11/21 08:52:44;;;;;;;8.93;6.60;;;;;;;-140.72;100.00;53304.06;5063273;28;20032;-69
2022/11/21 08:55:09;;;;;;;13.35;7.65;;;;;;;-140.72;100.00;53224.91;5055552;28;20041;-69
2022/11/21 08:57:39;;;;;;;12.85;7.63;;;;;;;-140.72;100.00;53218.81;5068305;28;20126;-69
2022/11/21 09:00:09;;;;;;;11.07;7.88;;;;;;;-140.72;100.00;53206.66;5061403;28;20055;-69
2022/11/21 09:02:41;;;;;;;;;;;;;;;-140.72;100.00;53243.19;5057939;28;20035;-68
2022/11/21 09:05:06;;;;;;;10.93;6.82;;;;;;;-140.72;100.00;53243.19;5065126;28;19913;-69
2022/11/21 09:07:35;;;;;;;10.70;7.20;;;;;;;-140.72;100.00;53259.41;5069394;28;20047;-69
2022/11/21 09:10:00;;;;;;;15.77;7.85;;;;;;;-140.72;100.00;53289.88;5048517;28;20035;-69
2022/11/21 09:12:26;;;;;;;13.43;8.15;;;;;;;-140.72;100.00;53186.34;5061903;28;20029;-69
2022/11/21 09:20:20;;;;;;;8.63;5.47;;;;;;;-140.72;100.00;53220.84;5061537;28;20047;-67
2022/11/21 09:22:45;;;;;;;7.97;5.22;;;;;;;-140.72;100.00;53235.06;5068488;28;20016;-68
2022/11/21 09:25:14;;;;;;;9.13;6.13;;;;;;;-140.72;100.00;53190.41;5049535;28;20082;-68
2022/11/21 09:27:39;;;;;;;9.50;5.30;;;;;;;-140.72;100.00;53235.06;5062356;28;20025;-68
2022/11/21 09:30:05;;;;;;;7.38;4.57;;;;;;;-140.72;100.00;53202.59;5081284;28;20039;-68
2022/11/21 09:32:30;;;;;;;7.82;5.45;;;;;;;-140.72;100.00;53184.31;5065504;28;20047;-68
2022/11/21 09:34:55;;;;;;;7.80;4.95;;;;;;;-140.72;100.00;53218.81;5068998;28;20021;-68
2022/11/21 09:37:21;;;;;;;8.35;4.05;;;;;;;-140.72;100.00;53210.72;5068958;28;20079;-68
2022/11/21 09:39:46;;;;;;;6.53;3.92;;;;;;;-140.72;100.00;53194.47;5062860;28;20086;-68
2022/11/21 09:42:24;;;;;;;13.45;4.90;;;;;;;-140.72;100.00;53180.25;5061746;28;20086;-68
2022/11/21 09:45:04;;;;;;;6.05;4.30;;;;;;;-140.72;100.00;53208.69;5055839;28;20582;-69
2022/11/21 09:47:40;;;;;;;9.23;4.25;;;;;;;-140.72;100.00;53259.41;5053294;28;20041;-68
2022/11/21 09:50:11;;;;;;;7.72;4.13;;;;;;;-140.72;100.00;53194.47;5052836;28;20063;-68
2022/11/21 09:52:49;;;;;;;5.88;4.57;;;;;;;-140.72;100.00;53208.69;5052418;28;20402;-68
2022/11/21 09:55:26;;;;;;;10.68;4.20;;;;;;;-140.72;100.00;53226.94;5065972;28;20094;-68
2022/11/21 09:57:52;;;;;;;9.18;5.32;;;;;;;-140.72;100.00;53200.56;5052731;28;20033;-67
2022/11/21 10:00:22;;;;;;;5.90;4.20;;;;;;;-140.72;100.00;53162.00;5064862;28;20044;-67
2022/11/21 10:02:55;;;;;;;8.48;4.90;;;;;;;-140.72;100.00;53162.00;5065341;28;20032;-68
2022/11/21 10:05:34;;;;;;;12.90;5.10;;;;;;;-140.72;100.00;53202.59;5079271;28;20036;-67
2022/11/21 10:08:13;;;;;;;6.45;4.90;;;;;;;-140.72;100.00;53198.53;5065049;28;20377;-67
2022/11/21 10:11:23;;;;;;;8.15;4.32;;;;;;;-140.72;100.00;53145.75;5072204;28;20029;-68
2022/11/21 10:14:11;;;;;;;9.93;4.82;;;;;;;-140.72;100.00;53184.31;5062729;28;20122;-68
2022/11/21 10:16:47;;;;;;;7.75;5.05;;;;;;;-140.72;100.00;53166.06;5059463;28;20032;-67
2022/11/21 10:19:18;;;;;;;14.48;5.50;;;;;;;-140.72;100.00;53178.22;5080664;28;20089;-67
2022/11/21 10:21:50;;;;;;;8.38;4.90;;;;;;;-140.72;100.00;53202.59;5077214;28;20028;-68
2022/11/21 10:24:57;;;;;;;7.30;4.82;;;;;;;-140.72;100.00;53153.88;5060474;28;20116;-67
2022/11/21 10:27:38;;;;;;;11.82;5.30;;;;;;;-140.72;100.00;53162.00;5068154;28;20032;-67
2022/11/21 10:30:06;;;;;;;6.93;4.65;;;;;;;-140.72;100.00;53174.19;5063363;28;20477;-68
2022/11/21 10:32:41;;;;;;;6.30;4.78;;;;;;;-140.72;100.00;53192.44;5077768;28;20083;-68
2022/11/21 10:35:28;;;;;;;6.85;4.55;;;;;;;-140.72;100.00;53182.28;5050425;28;20028;-67
2022/11/21 10:37:56;;;;;;;12.52;5.05;;;;;;;-140.72;100.00;53168.09;5074517;28;20436;-67
2022/11/21 10:40:36;;;;;;;5.60;3.60;;;;;;;-140.72;100.00;53182.28;5057371;28;20036;-67
2022/11/21 10:46:00;;;;;;;3.65;2.95;;;;;;;-140.72;100.00;53168.09;5062295;28;20090;-69
2022/11/21 10:48:26;;;;;;;6.93;4.15;;;;;;;-140.72;100.00;53178.22;5052946;28;20375;-66
2022/11/21 10:51:28;;;;;;;6.10;3.65;;;;;;;-140.72;100.00;53170.13;5058811;28;20042;-70
2022/11/21 10:57:06;;;;;;;8.65;3.92;;;;;;;-140.72;100.00;53184.31;5079522;28;20452;-68
2022/11/21 10:59:31;;;;;;;5.25;3.45;;;;;;;-140.72;100.00;53200.56;5062335;28;20461;-67
2022/11/21 11:02:01;;;;;;;7.15;4.05;;;;;;;-140.72;100.00;53174.19;5065642;28;20028;-68
2022/11/21 11:04:34;;;;;;;16.83;4.65;;;;;;;-140.72;100.00;53174.19;5062700;28;20037;-67
2022/11/21 11:07:21;;;;;;;6.35;3.55;;;;;;;-140.72;100.00;53129.53;5061038;28;20060;-67
2022/11/21 11:09:46;;;;;;;7.63;3.97;;;;;;;-140.72;100.00;53182.28;5068587;28;20558;-68
2022/11/21 11:15:26;;;;;;;12.38;5.10;;;;;;;-140.72;100.00;53131.56;5035761;28;20106;-67
2022/11/21 11:17:58;;;;;;;8.57;4.35;;;;;;;-140.72;100.00;53168.09;5053305;28;20029;-67
2022/11/21 11:20:37;;;;;;;9.02;3.78;;;;;;;-140.72;100.00;53145.75;5060716;28;20382;-67
2022/11/21 11:23:23;;;;;;;8.60;4.40;;;;;;;-140.72;100.00;53188.38;5050069;28;20066;-67
2022/11/21 11:25:59;;;;;;;8.93;3.83;;;;;;;-140.72;100.00;53137.66;5051425;28;20040;-68
2022/11/21 11:28:32;;;;;;;6.72;4.20;;;;;;;-140.72;100.00;53178.22;5077090;28;20052;-67
2022/11/21 11:30:59;;;;;;;10.57;2.47;;;;;;;-140.72;100.00;53125.47;5065475;28;20028;-67